Time;durP1;ratioP1;P1;durP2;ratioP2;P2;SDS_P1;SDS_P2;PMS_P1;PMS_P2;Temp;Humidity;BMP_temperature;BMP_pressure;BME280_temperature;BME280_humidity;BME280_pressure;Samples;Min_cycle;Max_cycle;Signal;HPM_P1;HPM_P2
2021/06/28 00:00:24;;;;;;;14.98;11.18;;;;;;;;;;5011986;28;20125;-89
2021/06/28 00:02:50;;;;;;;15.88;11.35;;;;;;;;;;4996934;28;20058;-89
2021/06/28 00:05:18;;;;;;;15.45;9.50;;;;;;;;;;4995124;28;20481;-89
2021/06/28 00:07:44;;;;;;;15.23;10.88;;;;;;;;;;4995480;28;20030;-89
2021/06/28 00:10:14;;;;;;;15.77;10.15;;;;;;;;;;4996831;28;20030;-89
2021/06/28 00:12:40;;;;;;;17.67;10.63;;;;;;;;;;5012079;28;20031;-89
2021/06/28 00:15:11;;;;;;;18.25;10.90;;;;;;;;;;4996712;28;20049;-88
2021/06/28 00:17:36;;;;;;;14.48;11.02;;;;;;;;;;4996487;28;20420;-88
2021/06/28 00:20:04;;;;;;;19.45;12.73;;;;;;;;;;4995118;28;20057;-89
2021/06/28 00:22:30;;;;;;;15.45;10.02;;;;;;;;;;4995471;28;20058;-88
2021/06/28 00:24:55;;;;;;;13.65;12.18;;;;;;;;;;4995220;28;20054;-88
2021/06/28 00:27:23;;;;;;;15.85;11.70;;;;;;;;;;4996108;28;20432;-89
2021/06/28 00:29:52;;;;;;;16.67;10.23;;;;;;;;;;5011437;28;20121;-89
2021/06/28 00:32:19;;;;;;;14.15;10.95;;;;;;;;;;4994980;28;20117;-88
2021/06/28 00:34:46;;;;;;;13.93;10.18;;;;;;;;;;4996363;28;20037;-88
2021/06/28 00:37:11;;;;;;;13.38;9.25;;;;;;;;;;4996366;28;20030;-88
2021/06/28 00:39:37;;;;;;;15.65;11.38;;;;;;;;;;4996549;28;20462;-87
2021/06/28 00:42:03;;;;;;;13.15;10.43;;;;;;;;;;4996191;28;20489;-89
2021/06/28 00:44:29;;;;;;;17.58;12.38;;;;;;;;;;4994773;28;20022;-88
2021/06/28 00:46:54;;;;;;;16.63;12.65;;;;;;;;;;4995943;28;20041;-90
2021/06/28 00:49:20;;;;;;;17.90;12.13;;;;;;;;;;4995798;28;20474;-88
2021/06/28 00:51:46;;;;;;;12.48;10.48;;;;;;;;;;5011052;28;20030;-89
2021/06/28 00:54:12;;;;;;;16.77;9.45;;;;;;;;;;4995936;28;20029;-89
2021/06/28 00:56:38;;;;;;;13.70;10.13;;;;;;;;;;5010874;28;20030;-89
2021/06/28 00:59:04;;;;;;;14.25;9.10;;;;;;;;;;4978318;28;20073;-90
2021/06/28 01:01:30;;;;;;;13.23;7.60;;;;;;;;;;4995871;28;20023;-89
2021/06/28 01:03:55;;;;;;;17.52;10.60;;;;;;;;;;5011023;28;20080;-90
2021/06/28 01:06:21;;;;;;;14.10;10.13;;;;;;;;;;4994249;28;20089;-89
2021/06/28 01:08:47;;;;;;;13.88;9.82;;;;;;;;;;4994317;28;20109;-88
2021/06/28 01:11:13;;;;;;;13.65;10.82;;;;;;;;;;4995692;28;20029;-90
2021/06/28 01:13:43;;;;;;;23.80;12.02;;;;;;;;;;4994190;28;20565;-90
2021/06/28 01:16:09;;;;;;;16.10;10.48;;;;;;;;;;4995580;28;20027;-90
2021/06/28 01:18:35;;;;;;;17.05;11.65;;;;;;;;;;4995517;28;20089;-89
2021/06/28 01:21:01;;;;;;;27.83;11.20;;;;;;;;;;4994223;28;20473;-90
2021/06/28 01:23:28;;;;;;;15.93;11.40;;;;;;;;;;4994058;28;20026;-89
2021/06/28 01:26:04;;;;;;;18.52;9.60;;;;;;;;;;4993855;28;20478;-89
2021/06/28 01:28:29;;;;;;;13.50;8.80;;;;;;;;;;4995784;28;20092;-89
2021/06/28 01:30:58;;;;;;;16.35;10.48;;;;;;;;;;5009732;28;20124;-89
2021/06/28 01:33:24;;;;;;;16.83;8.32;;;;;;;;;;4993794;28;20108;-90
2021/06/28 01:35:50;;;;;;;13.63;10.27;;;;;;;;;;4993897;28;20074;-89
2021/06/28 01:38:16;;;;;;;12.43;11.15;;;;;;;;;;4993871;28;20469;-89
2021/06/28 01:40:43;;;;;;;12.05;10.02;;;;;;;;;;5010052;28;20042;-88
2021/06/28 01:43:09;;;;;;;13.27;10.05;;;;;;;;;;4993695;28;20022;-88
2021/06/28 01:45:35;;;;;;;13.18;7.65;;;;;;;;;;4993633;28;20493;-89
2021/06/28 01:48:01;;;;;;;16.48;10.82;;;;;;;;;;4993778;28;20057;-88
2021/06/28 01:50:31;;;;;;;12.45;11.07;;;;;;;;;;4994906;28;20045;-89
2021/06/28 01:52:58;;;;;;;15.40;10.23;;;;;;;;;;4993562;28;20026;-89
2021/06/28 01:55:24;;;;;;;13.10;10.40;;;;;;;;;;4994918;28;20026;-90
2021/06/28 01:57:59;;;;;;;13.30;9.65;;;;;;;;;;4993456;28;20027;-90
2021/06/28 02:00:37;;;;;;;13.93;9.45;;;;;;;;;;4994829;28;20030;-90
2021/06/28 02:03:07;;;;;;;14.90;8.65;;;;;;;;;;4994974;28;20072;-90
2021/06/28 02:05:37;;;;;;;15.50;10.95;;;;;;;;;;4994614;28;20034;-88
2021/06/28 02:08:03;;;;;;;;;;;;;;;;;;4995405;28;20033;-89
2021/06/28 02:10:29;;;;;;;13.05;6.82;;;;;;;;;;4977112;28;20331;-88
2021/06/28 02:12:55;;;;;;;11.88;9.38;;;;;;;;;;5009727;28;20034;-89
2021/06/28 02:15:26;;;;;;;11.00;6.68;;;;;;;;;;4993545;28;20374;-89
2021/06/28 02:17:52;;;;;;;14.35;11.00;;;;;;;;;;5009559;28;20027;-88
2021/06/28 02:20:19;;;;;;;14.07;8.15;;;;;;;;;;4993198;28;20025;-88
2021/06/28 02:22:46;;;;;;;13.75;10.45;;;;;;;;;;5009197;28;20061;-89
2021/06/28 02:25:12;;;;;;;15.50;9.93;;;;;;;;;;4994377;28;20026;-89
2021/06/28 02:27:39;;;;;;;13.68;10.45;;;;;;;;;;5009291;28;20048;-88
2021/06/28 02:30:07;;;;;;;13.25;11.13;;;;;;;;;;4993352;28;20474;-89
2021/06/28 02:32:33;;;;;;;14.32;9.27;;;;;;;;;;5007518;28;20026;-89
2021/06/28 02:34:59;;;;;;;15.18;11.27;;;;;;;;;;5029116;28;20037;-89
2021/06/28 02:37:24;;;;;;;16.25;9.32;;;;;;;;;;5017469;28;20030;-88
2021/06/28 02:39:50;;;;;;;15.88;10.15;;;;;;;;;;5015640;28;20041;-89
2021/06/28 02:42:16;;;;;;;12.00;9.13;;;;;;;;;;4996297;28;20030;-88
2021/06/28 02:44:42;;;;;;;12.35;7.82;;;;;;;;;;5010009;28;20018;-89
2021/06/28 02:47:08;;;;;;;12.73;9.77;;;;;;;;;;5009391;28;20501;-88
2021/06/28 02:49:34;;;;;;;18.17;8.05;;;;;;;;;;5009217;28;20026;-88
2021/06/28 02:52:00;;;;;;;13.32;9.52;;;;;;;;;;5009172;28;20104;-88
2021/06/28 02:54:25;;;;;;;18.17;11.02;;;;;;;;;;5009031;28;20031;-88
2021/06/28 02:56:51;;;;;;;14.35;8.73;;;;;;;;;;4994011;28;20033;-89
2021/06/28 02:59:17;;;;;;;21.05;9.65;;;;;;;;;;4994600;28;20054;-88
2021/06/28 03:01:43;;;;;;;15.05;10.88;;;;;;;;;;5009133;28;20496;-88
2021/06/28 03:04:09;;;;;;;12.75;9.52;;;;;;;;;;4994346;28;20029;-89
2021/06/28 03:06:37;;;;;;;11.30;9.35;;;;;;;;;;4992690;28;20050;-89
2021/06/28 03:09:03;;;;;;;12.00;8.15;;;;;;;;;;5009311;28;20034;-89
2021/06/28 03:11:29;;;;;;;19.75;10.82;;;;;;;;;;4994648;28;20095;-88
2021/06/28 03:16:35;;;;;;;15.77;10.00;;;;;;;;;;5071709;22;20068;-90
2021/06/28 03:19:01;;;;;;;14.80;6.40;;;;;;;;;;5052040;28;20379;-91
2021/06/28 03:21:27;;;;;;;17.25;10.68;;;;;;;;;;5263740;22;20101;-94
2021/06/28 03:23:53;;;;;;;13.95;9.75;;;;;;;;;;5033746;28;20499;-93
2021/06/28 03:26:18;;;;;;;14.80;8.32;;;;;;;;;;5034070;28;20029;-91
2021/06/28 03:28:44;;;;;;;14.43;10.13;;;;;;;;;;5032569;28;20022;-92
2021/06/28 03:31:10;;;;;;;13.55;9.68;;;;;;;;;;5033388;28;20030;-92
2021/06/28 03:33:38;;;;;;;16.83;11.00;;;;;;;;;;5032179;28;20025;-93
2021/06/28 03:36:05;;;;;;;14.98;9.98;;;;;;;;;;5032312;28;20026;-92
2021/06/28 03:38:31;;;;;;;14.13;10.52;;;;;;;;;;5032370;28;20021;-91
2021/06/28 03:40:57;;;;;;;13.68;10.48;;;;;;;;;;5033892;28;20021;-92
2021/06/28 03:43:22;;;;;;;18.55;10.05;;;;;;;;;;5032177;28;20021;-93
2021/06/28 03:45:48;;;;;;;16.80;10.02;;;;;;;;;;5032317;28;20026;-91
2021/06/28 03:48:14;;;;;;;12.32;10.75;;;;;;;;;;5032368;28;20028;-91
2021/06/28 03:50:42;;;;;;;22.42;10.48;;;;;;;;;;5031876;28;20025;-91
2021/06/28 03:53:23;;;;;;;19.15;8.35;;;;;;;;;;5029532;28;20026;-92
2021/06/28 03:55:51;;;;;;;13.82;9.68;;;;;;;;;;5031465;28;20104;-94
2021/06/28 03:58:17;;;;;;;11.70;10.00;;;;;;;;;;5017323;28;20064;-93
2021/06/28 04:00:45;;;;;;;14.52;9.90;;;;;;;;;;5017950;28;20018;-94
2021/06/28 04:03:11;;;;;;;14.57;10.60;;;;;;;;;;5018913;28;20038;-93
2021/06/28 04:05:39;;;;;;;13.77;10.43;;;;;;;;;;5017037;28;20052;-92
2021/06/28 04:08:06;;;;;;;12.93;10.90;;;;;;;;;;5018074;28;20030;-93
2021/06/28 04:10:32;;;;;;;13.18;7.43;;;;;;;;;;5016478;28;20381;-94
2021/06/28 04:12:57;;;;;;;16.40;10.20;;;;;;;;;;5017263;28;20548;-94
2021/06/28 04:15:25;;;;;;;12.63;9.43;;;;;;;;;;5018080;28;20049;-93
2021/06/28 04:17:53;;;;;;;17.25;11.80;;;;;;;;;;5046962;23;20793;-94
2021/06/28 04:20:22;;;;;;;14.23;11.90;;;;;;;;;;5056508;28;20040;-92
2021/06/28 04:22:53;;;;;;;16.42;11.02;;;;;;;;;;5055139;28;20108;-93
2021/06/28 04:25:22;;;;;;;12.13;10.40;;;;;;;;;;5056823;28;20087;-93
2021/06/28 04:27:48;;;;;;;12.65;9.82;;;;;;;;;;5055132;28;20028;-93
2021/06/28 04:30:25;;;;;;;13.20;10.27;;;;;;;;;;5055463;28;20063;-95
2021/06/28 04:32:51;;;;;;;16.42;11.15;;;;;;;;;;5055042;28;20536;-93
2021/06/28 04:35:20;;;;;;;18.17;10.52;;;;;;;;;;5055501;28;20036;-94
2021/06/28 04:41:19;;;;;;;20.83;11.65;;;;;;;;;;6083184;22;20020;-95
2021/06/28 04:43:45;;;;;;;20.48;11.57;;;;;;;;;;5026050;28;20062;-93
2021/06/28 04:46:45;;;;;;;18.42;12.48;;;;;;;;;;5026887;28;20053;-94
2021/06/28 04:49:24;;;;;;;19.52;12.68;;;;;;;;;;5027037;28;20034;-92
2021/06/28 04:51:59;;;;;;;18.17;13.70;;;;;;;;;;5017090;28;20026;-91
2021/06/28 04:54:27;;;;;;;23.77;16.35;;;;;;;;;;5015355;28;20026;-91
2021/06/28 04:56:53;;;;;;;19.38;14.40;;;;;;;;;;5015194;28;20037;-91
2021/06/28 04:59:22;;;;;;;21.05;14.63;;;;;;;;;;5015094;28;20030;-94
2021/06/28 05:01:47;;;;;;;21.02;13.40;;;;;;;;;;5017340;28;20030;-90
2021/06/28 05:04:13;;;;;;;19.10;14.70;;;;;;;;;;5014355;28;20064;-93
2021/06/28 05:06:39;;;;;;;22.33;14.20;;;;;;;;;;5014306;28;20421;-95
2021/06/28 05:09:04;;;;;;;19.13;14.20;;;;;;;;;;5014272;28;20484;-92
2021/06/28 05:11:30;;;;;;;20.80;12.95;;;;;;;;;;5015651;28;20036;-92
2021/06/28 05:14:03;;;;;;;20.10;14.05;;;;;;;;;;5014315;28;20088;-93
2021/06/28 05:16:28;;;;;;;19.60;11.60;;;;;;;;;;5014101;28;20087;-89
2021/06/28 05:18:54;;;;;;;18.20;13.50;;;;;;;;;;5013920;28;20022;-90
2021/06/28 05:21:20;;;;;;;17.50;12.73;;;;;;;;;;5013932;28;20080;-92
2021/06/28 05:23:46;;;;;;;15.63;13.07;;;;;;;;;;5014079;28;20021;-91
2021/06/28 05:26:11;;;;;;;22.02;13.43;;;;;;;;;;5015237;28;20056;-91
2021/06/28 05:28:37;;;;;;;23.98;14.65;;;;;;;;;;5013895;28;20137;-88
2021/06/28 05:31:03;;;;;;;18.35;12.77;;;;;;;;;;5013705;28;20030;-91
2021/06/28 05:33:29;;;;;;;20.95;15.60;;;;;;;;;;5014951;28;20477;-87
2021/06/28 05:35:55;;;;;;;20.67;15.32;;;;;;;;;;5013626;28;20037;-87
2021/06/28 05:38:21;;;;;;;20.67;15.02;;;;;;;;;;5015064;28;20030;-96
2021/06/28 05:40:52;;;;;;;20.00;13.15;;;;;;;;;;5014008;28;20465;-90
2021/06/28 05:43:20;;;;;;;20.90;15.43;;;;;;;;;;5014504;28;20050;-93
2021/06/28 05:45:49;;;;;;;19.30;13.93;;;;;;;;;;5014042;28;20465;-92
2021/06/28 05:48:17;;;;;;;17.65;11.73;;;;;;;;;;5013288;28;20201;-94
2021/06/28 05:50:42;;;;;;;23.02;14.77;;;;;;;;;;5013529;28;20049;-93
2021/06/28 05:53:11;;;;;;;16.92;11.88;;;;;;;;;;5013530;28;20473;-93
2021/06/28 05:55:37;;;;;;;20.30;12.95;;;;;;;;;;5013441;28;20134;-93
2021/06/28 05:58:12;;;;;;;15.90;12.13;;;;;;;;;;5013525;28;20105;-93
2021/06/28 06:00:38;;;;;;;20.02;15.02;;;;;;;;;;5013429;28;20026;-92
2021/06/28 06:03:04;;;;;;;20.13;13.93;;;;;;;;;;5013234;28;20104;-91
2021/06/28 06:05:29;;;;;;;17.23;14.23;;;;;;;;;;5029775;28;20026;-88
2021/06/28 06:07:55;;;;;;;18.90;16.35;;;;;;;;;;5014304;28;20034;-89
2021/06/28 06:10:21;;;;;;;21.27;15.10;;;;;;;;;;5012927;28;20548;-89
2021/06/28 06:12:47;;;;;;;24.23;14.80;;;;;;;;;;5012946;28;20489;-90
2021/06/28 06:15:14;;;;;;;19.27;15.30;;;;;;;;;;5014071;28;20030;-93
2021/06/28 06:17:40;;;;;;;16.80;14.25;;;;;;;;;;5029107;28;20030;-92
2021/06/28 06:20:08;;;;;;;20.55;15.48;;;;;;;;;;5014597;28;20497;-90
2021/06/28 06:22:34;;;;;;;15.93;12.65;;;;;;;;;;5013415;28;20600;-89
2021/06/28 06:25:00;;;;;;;19.65;13.45;;;;;;;;;;5014394;28;20025;-90
2021/06/28 06:27:26;;;;;;;16.50;12.27;;;;;;;;;;5012646;28;20044;-92
2021/06/28 06:29:51;;;;;;;16.92;12.15;;;;;;;;;;5013948;28;20461;-91
2021/06/28 06:32:17;;;;;;;16.80;13.68;;;;;;;;;;5012596;28;20096;-91
2021/06/28 06:34:43;;;;;;;17.63;10.45;;;;;;;;;;5014478;28;20058;-92
2021/06/28 06:39:44;;;;;;;20.42;13.00;;;;;;;;;;5214347;22;20060;-93
2021/06/28 06:42:10;;;;;;;18.15;12.75;;;;;;;;;;5038977;28;20031;-94
2021/06/28 06:44:35;;;;;;;19.50;12.30;;;;;;;;;;5054614;28;20112;-92
2021/06/28 06:47:04;;;;;;;15.60;10.75;;;;;;;;;;5035606;28;20025;-94
2021/06/28 06:52:05;;;;;;;15.60;12.27;;;;;;;;;;5522136;22;20060;-93
2021/06/28 06:54:30;;;;;;;15.45;10.70;;;;;;;;;;5032966;28;20041;-93
2021/06/28 06:56:56;;;;;;;17.00;12.07;;;;;;;;;;5032975;28;20104;-92
2021/06/28 07:08:25;;;;;;;15.25;10.60;;;;;;;;;;5261989;22;20069;-94
2021/06/28 07:10:51;;;;;;;15.18;11.20;;;;;;;;;;5003255;28;20424;-94
2021/06/28 07:17:03;;;;;;;14.68;11.43;;;;;;;;;;5028179;22;20057;-94
2021/06/28 07:19:37;;;;;;;11.52;9.30;;;;;;;;;;4997935;28;20034;-94
2021/06/28 07:22:26;;;;;;;13.52;11.93;;;;;;;;;;5013824;28;20045;-94
2021/06/28 07:28:39;;;;;;;;;;;;;;;;;;;;;
2021/06/28 07:47:17;;;;;;;11.25;6.22;;;;;;;;;;5621735;22;20056;-94
2021/06/28 07:49:43;;;;;;;9.95;6.72;;;;;;;;;;5003553;28;20029;-94
2021/06/28 07:52:44;;;;;;;11.80;9.38;;;;;;;;;;5077042;22;20079;-95
2021/06/28 07:55:27;;;;;;;12.23;7.75;;;;;;;;;;4976612;28;20104;-93
2021/06/28 07:58:12;;;;;;;;;;;;;;;;;;;;;
2021/06/28 08:01:28;;;;;;;10.68;6.30;;;;;;;;;;5029818;28;20548;-91
2021/06/28 08:03:54;;;;;;;16.55;7.00;;;;;;;;;;4976724;28;20035;-93
2021/06/28 08:06:52;;;;;;;13.95;10.20;;;;;;;;;;4980324;28;20053;-96
2021/06/28 08:14:52;;;;;;;12.68;9.25;;;;;;;;;;5145155;22;20058;-94
2021/06/28 08:17:23;;;;;;;14.50;6.78;;;;;;;;;;5000410;28;20034;-92
2021/06/28 08:19:49;;;;;;;10.98;8.32;;;;;;;;;;4999106;28;20033;-90
2021/06/28 08:22:16;;;;;;;9.93;7.63;;;;;;;;;;5015766;28;20025;-92
2021/06/28 08:24:42;;;;;;;12.70;7.32;;;;;;;;;;4999340;28;20045;-90
2021/06/28 08:27:11;;;;;;;12.38;8.13;;;;;;;;;;4998750;28;20381;-92
2021/06/28 08:29:42;;;;;;;12.13;8.07;;;;;;;;;;4998997;28;20387;-91
2021/06/28 08:32:09;;;;;;;10.80;5.82;;;;;;;;;;5015558;28;20025;-92
2021/06/28 08:34:35;;;;;;;11.80;5.57;;;;;;;;;;4999123;28;20029;-92
2021/06/28 08:37:13;;;;;;;9.88;6.20;;;;;;;;;;4999348;28;20022;-92
2021/06/28 08:39:48;;;;;;;10.50;4.80;;;;;;;;;;4998689;28;20022;-92
2021/06/28 08:42:21;;;;;;;12.80;8.43;;;;;;;;;;5015477;28;20033;-91
2021/06/28 08:44:47;;;;;;;10.70;4.72;;;;;;;;;;5015744;28;20049;-94
2021/06/28 08:47:20;;;;;;;14.02;5.72;;;;;;;;;;4999022;28;20056;-90
2021/06/28 08:49:48;;;;;;;10.68;7.60;;;;;;;;;;4998716;28;20097;-91
2021/06/28 08:52:14;;;;;;;9.35;4.40;;;;;;;;;;5016242;28;20036;-92
2021/06/28 08:54:42;;;;;;;11.63;4.88;;;;;;;;;;5000664;28;20501;-93
2021/06/28 08:57:08;;;;;;;8.82;4.88;;;;;;;;;;5018606;28;20033;-89
2021/06/28 09:19:22;;;;;;;9.85;7.25;;;;;;;;;;5010030;23;20094;-92
2021/06/28 09:36:23;;;;;;;12.20;6.55;;;;;;;;;;5271929;23;20051;-92
2021/06/28 11:30:40;;;;;;;;;;;;;;;;;;;;;
2021/06/28 11:36:46;;;;;;;11.52;8.82;;;;;;;;;;4979540;28;20134;-91
2021/06/28 11:58:34;;;;;;;;;;;;;;;;;;;;;
2021/06/28 12:01:22;;;;;;;11.10;5.95;;;;;;;;;;5105770;23;20578;31
2021/06/28 12:31:48;;;;;;;;;;;;;;;;;;;;;
2021/06/28 12:40:24;;;;;;;10.27;8.93;;;;;;;;;;4924569;29;20059;-94
2021/06/28 13:11:21;;;;;;;11.25;7.68;;;;;;;;;;4978960;28;20143;-92
2021/06/28 13:17:31;;;;;;;12.20;9.82;;;;;;;;;;4903370;29;20060;-94
2021/06/28 13:20:20;;;;;;;13.50;8.60;;;;;;;;;;4864870;29;20049;-95
2021/06/28 13:26:14;;;;;;;17.70;10.88;;;;;;;;;;4824798;29;20494;-95
2021/06/28 13:29:13;;;;;;;12.93;10.60;;;;;;;;;;4839739;29;20043;-94
2021/06/28 13:31:54;;;;;;;14.27;9.02;;;;;;;;;;4937188;23;20014;-93
2021/06/28 13:34:21;;;;;;;15.32;10.48;;;;;;;;;;4921510;29;20495;-93
2021/06/28 13:37:01;;;;;;;14.75;11.55;;;;;;;;;;4937906;29;20031;-93
2021/06/28 13:39:39;;;;;;;12.73;11.18;;;;;;;;;;4921020;29;20115;-92
2021/06/28 13:42:18;;;;;;;16.25;9.60;;;;;;;;;;4920767;29;20083;-92
2021/06/28 13:45:00;;;;;;;13.25;8.32;;;;;;;;;;4921070;29;20497;-91
2021/06/28 13:47:28;;;;;;;15.50;10.43;;;;;;;;;;4920367;29;20131;-92
2021/06/28 13:50:46;;;;;;;19.02;11.15;;;;;;;;;;4920159;29;20032;-92
2021/06/28 13:53:22;;;;;;;12.82;9.82;;;;;;;;;;4906278;29;20051;-92
2021/06/28 13:55:50;;;;;;;12.90;8.80;;;;;;;;;;4920136;29;20555;-91
2021/06/28 13:58:28;;;;;;;17.95;11.95;;;;;;;;;;4937185;29;20066;-92
2021/06/28 14:01:00;;;;;;;12.68;10.07;;;;;;;;;;4920591;29;20031;-91
2021/06/28 14:03:35;;;;;;;13.23;9.70;;;;;;;;;;4920393;29;20070;-92
2021/06/28 14:06:07;;;;;;;14.00;9.52;;;;;;;;;;5177377;23;20055;-92
2021/06/28 14:08:42;;;;;;;11.50;10.23;;;;;;;;;;4921616;29;20043;-92
2021/06/28 14:14:40;;;;;;;;;;;;;;;;;;;;;
2021/06/28 14:17:09;;;;;;;13.20;9.40;;;;;;;;;;4947531;23;20059;-93
2021/06/28 14:20:03;;;;;;;12.00;9.38;;;;;;;;;;4926273;29;20086;-94
2021/06/28 14:23:01;;;;;;;11.70;6.43;;;;;;;;;;4945449;29;20030;-93
2021/06/28 14:25:36;;;;;;;11.50;7.97;;;;;;;;;;4916118;29;20400;-93
2021/06/28 14:28:10;;;;;;;14.27;9.20;;;;;;;;;;4922820;29;20032;-93
2021/06/28 14:30:35;;;;;;;12.38;8.70;;;;;;;;;;4927203;29;20020;-93
2021/06/28 14:33:09;;;;;;;13.70;6.15;;;;;;;;;;4924970;29;20387;-93
2021/06/28 14:35:55;;;;;;;13.35;9.65;;;;;;;;;;4921944;29;20118;-93
2021/06/28 14:38:21;;;;;;;15.13;9.68;;;;;;;;;;4928668;29;20055;-90
2021/06/28 14:40:55;;;;;;;11.85;8.55;;;;;;;;;;4937028;29;20471;-91
2021/06/28 14:43:21;;;;;;;11.93;6.95;;;;;;;;;;4919662;29;20027;-91
2021/06/28 14:53:06;;;;;;;16.67;9.43;;;;;;;;;;4919886;23;20074;-92
2021/06/28 14:55:32;;;;;;;11.55;6.68;;;;;;;;;;4919050;29;20032;-90
2021/06/28 14:57:58;;;;;;;13.18;8.00;;;;;;;;;;4919208;29;20130;-90
2021/06/28 15:00:43;;;;;;;;;;;;;;;;;;;;;
2021/06/28 15:03:27;;;;;;;11.27;9.30;;;;;;;;;;4936672;29;20468;-90
2021/06/28 15:05:53;;;;;;;14.88;8.55;;;;;;;;;;4920714;29;20034;-88
2021/06/28 15:08:19;;;;;;;15.45;8.35;;;;;;;;;;4937300;29;20031;-88
2021/06/28 15:10:46;;;;;;;11.55;8.65;;;;;;;;;;4936705;29;20067;-88
2021/06/28 15:13:12;;;;;;;13.95;8.98;;;;;;;;;;4936130;29;20119;-88
2021/06/28 15:15:38;;;;;;;12.73;7.65;;;;;;;;;;4919548;29;20111;-88
2021/06/28 15:18:04;;;;;;;9.90;6.57;;;;;;;;;;4936551;29;20032;-87
2021/06/28 15:20:29;;;;;;;13.88;10.05;;;;;;;;;;4919065;29;20028;-88
2021/06/28 15:23:05;;;;;;;;;;;;;;;;;;;;;
2021/06/28 15:25:33;;;;;;;12.57;6.10;;;;;;;;;;4937172;29;20035;-87
2021/06/28 15:27:59;;;;;;;11.68;6.45;;;;;;;;;;4919394;29;20127;-88
2021/06/28 15:30:25;;;;;;;14.32;9.68;;;;;;;;;;4936338;29;20024;-86
2021/06/28 15:32:53;;;;;;;10.63;6.45;;;;;;;;;;4936858;29;20028;-86
2021/06/28 15:35:19;;;;;;;9.88;7.78;;;;;;;;;;4935657;29;20039;-88
2021/06/28 15:37:45;;;;;;;15.32;8.70;;;;;;;;;;4936400;29;20035;-88
2021/06/28 15:40:15;;;;;;;11.32;6.32;;;;;;;;;;4919718;29;20039;-88
2021/06/28 15:42:41;;;;;;;13.25;8.63;;;;;;;;;;4918863;29;20245;-88
2021/06/28 15:45:09;;;;;;;11.80;8.90;;;;;;;;;;4936508;29;20032;-88
2021/06/28 15:47:35;;;;;;;12.07;8.82;;;;;;;;;;4936047;29;20031;-88
2021/06/28 15:50:05;;;;;;;13.45;7.75;;;;;;;;;;4938253;29;20024;-90
2021/06/28 15:52:30;;;;;;;;;;;;;;;;;;4922982;29;20023;-88
2021/06/28 15:54:56;;;;;;;13.13;8.95;;;;;;;;;;4938662;29;19915;-89
2021/06/28 16:00:10;;;;;;;10.85;9.27;;;;;;;;;;4939919;29;20036;-89
2021/06/28 16:02:37;;;;;;;10.88;7.78;;;;;;;;;;4922140;29;20027;-87
2021/06/28 16:05:04;;;;;;;10.98;8.60;;;;;;;;;;4939439;29;20024;-88
2021/06/28 16:07:31;;;;;;;12.18;8.15;;;;;;;;;;4938860;29;20038;-86
2021/06/28 16:09:57;;;;;;;13.30;8.77;;;;;;;;;;4921770;29;20024;-89
2021/06/28 16:12:23;;;;;;;13.43;8.18;;;;;;;;;;4922189;29;20027;-88
2021/06/28 16:14:49;;;;;;;12.02;9.00;;;;;;;;;;4938939;29;20074;-88
2021/06/28 16:17:14;;;;;;;10.80;6.55;;;;;;;;;;4939071;29;20107;-88
2021/06/28 16:19:41;;;;;;;11.93;6.30;;;;;;;;;;4921763;29;20023;-88
2021/06/28 16:22:07;;;;;;;10.60;8.88;;;;;;;;;;4938949;29;20034;-88
2021/06/28 16:24:34;;;;;;;14.32;9.32;;;;;;;;;;4938747;29;20031;-88
2021/06/28 16:27:04;;;;;;;13.10;9.32;;;;;;;;;;4921475;29;20039;-88
2021/06/28 16:29:31;;;;;;;;;;;;;;;;;;4939417;29;20027;-87
2021/06/28 16:31:57;;;;;;;13.23;5.95;;;;;;;;;;4921799;29;19914;-87
2021/06/28 16:34:23;;;;;;;11.98;8.70;;;;;;;;;;4921419;29;20042;-87
2021/06/28 16:36:48;;;;;;;14.10;9.30;;;;;;;;;;4921710;29;20024;-88
2021/06/28 16:39:14;;;;;;;10.65;8.35;;;;;;;;;;4921591;29;20383;-88
2021/06/28 16:41:40;;;;;;;18.48;9.32;;;;;;;;;;4922242;29;20038;-88
2021/06/28 16:44:05;;;;;;;15.93;9.23;;;;;;;;;;4921158;29;20554;-88
2021/06/28 16:46:51;;;;;;;10.20;8.68;;;;;;;;;;4938392;29;20035;-88
2021/06/28 16:49:19;;;;;;;13.70;8.93;;;;;;;;;;4939705;29;20472;-89
2021/06/28 16:51:57;;;;;;;16.50;9.35;;;;;;;;;;4922865;29;20468;-88
2021/06/28 16:54:23;;;;;;;12.73;8.82;;;;;;;;;;4918073;29;20052;-88
2021/06/28 16:56:49;;;;;;;13.60;8.70;;;;;;;;;;4918465;29;20044;-89
2021/06/28 16:59:17;;;;;;;11.15;9.00;;;;;;;;;;4920528;29;20413;-87
2021/06/28 17:01:51;;;;;;;11.60;8.40;;;;;;;;;;4918722;29;20025;-88
2021/06/28 17:09:21;;;;;;;13.90;9.32;;;;;;;;;;4963119;23;20055;-89
2021/06/28 17:11:50;;;;;;;12.13;6.55;;;;;;;;;;4937413;29;20388;-89
2021/06/28 17:14:21;;;;;;;10.15;6.93;;;;;;;;;;4937014;29;20032;-87
2021/06/28 17:20:22;;;;;;;10.32;6.70;;;;;;;;;;4880612;29;20037;-88
2021/06/28 17:25:55;;;;;;;19.02;10.98;;;;;;;;;;5252953;23;20059;-89
2021/06/28 17:28:21;;;;;;;14.68;9.48;;;;;;;;;;4939829;29;20067;-91
2021/06/28 17:30:46;;;;;;;17.13;10.10;;;;;;;;;;4942393;29;20039;-89
2021/06/28 17:33:12;;;;;;;13.40;10.68;;;;;;;;;;4940950;29;20490;-86
2021/06/28 17:35:38;;;;;;;17.08;10.70;;;;;;;;;;4942535;29;20036;-90
2021/06/28 17:38:04;;;;;;;14.15;11.18;;;;;;;;;;4943041;29;20078;-90
2021/06/28 17:40:40;;;;;;;15.50;10.65;;;;;;;;;;4940523;29;20036;-89
2021/06/28 17:43:06;;;;;;;19.23;10.27;;;;;;;;;;4940981;29;20161;-91
2021/06/28 17:45:35;;;;;;;14.02;8.75;;;;;;;;;;4941390;29;20502;-91
2021/06/28 17:48:01;;;;;;;15.00;9.70;;;;;;;;;;4944273;23;20079;-91
2021/06/28 17:50:27;;;;;;;12.55;10.07;;;;;;;;;;4938353;29;20055;-90
2021/06/28 17:52:53;;;;;;;11.85;10.05;;;;;;;;;;4940692;29;20050;-90
2021/06/28 17:55:19;;;;;;;16.67;10.30;;;;;;;;;;4944398;29;20020;-88
2021/06/28 17:57:47;;;;;;;13.23;9.85;;;;;;;;;;4941783;29;20031;-89
2021/06/28 18:00:15;;;;;;;12.82;8.40;;;;;;;;;;4938704;29;20032;-88
2021/06/28 18:02:42;;;;;;;15.95;9.43;;;;;;;;;;4936901;29;20126;-90
2021/06/28 18:10:18;;;;;;;40.17;22.05;;;;;;;;;;5150799;23;20059;-89
2021/06/28 18:12:44;;;;;;;14.63;10.93;;;;;;;;;;4935921;29;20027;-90
2021/06/28 18:15:40;;;;;;;14.95;10.98;;;;;;;;;;4946142;23;20484;-90
2021/06/28 18:18:06;;;;;;;15.68;8.73;;;;;;;;;;4944403;23;20051;-88
2021/06/28 18:20:49;;;;;;;14.73;11.45;;;;;;;;;;4937462;29;20083;-90
2021/06/28 18:23:14;;;;;;;17.63;10.88;;;;;;;;;;4937147;29;20095;-90
2021/06/28 18:25:40;;;;;;;14.40;8.25;;;;;;;;;;4938678;29;20387;-89
2021/06/28 18:28:06;;;;;;;17.45;9.63;;;;;;;;;;4936282;29;20059;-89
2021/06/28 18:30:33;;;;;;;16.33;9.18;;;;;;;;;;4944752;23;20274;-92
2021/06/28 18:35:49;;;;;;;18.25;12.23;;;;;;;;;;5165264;23;20097;-90
2021/06/28 18:38:14;;;;;;;18.38;11.23;;;;;;;;;;4940805;29;20027;-88
2021/06/28 18:41:03;;;;;;;18.02;12.27;;;;;;;;;;4940144;29;20123;-90
2021/06/28 18:43:30;;;;;;;17.83;12.57;;;;;;;;;;4932195;29;20034;-90
2021/06/28 18:48:59;;;;;;;16.23;12.10;;;;;;;;;;4988916;23;20059;-91
2021/06/28 18:51:28;;;;;;;17.25;11.25;;;;;;;;;;4940053;29;20027;-92
2021/06/28 18:54:21;;;;;;;18.75;11.65;;;;;;;;;;4940177;29;20542;-91
2021/06/28 18:56:54;;;;;;;17.45;12.00;;;;;;;;;;4909083;29;20054;-90
2021/06/28 18:59:24;;;;;;;17.30;13.93;;;;;;;;;;4941223;29;20051;-92
2021/06/28 19:01:54;;;;;;;19.98;12.65;;;;;;;;;;4940970;29;20371;-90
2021/06/28 19:04:20;;;;;;;20.33;13.35;;;;;;;;;;4964064;23;20102;-91
2021/06/28 19:06:48;;;;;;;18.45;12.90;;;;;;;;;;4938620;29;20023;-88
2021/06/28 19:09:14;;;;;;;14.82;10.75;;;;;;;;;;4939496;29;20027;-87
2021/06/28 19:11:53;;;;;;;;;;;;;;;;;;;;;
2021/06/28 19:14:19;;;;;;;15.35;10.13;;;;;;;;;;4955295;29;20031;-87
2021/06/28 19:16:45;;;;;;;17.75;12.10;;;;;;;;;;4938009;29;20119;-86
2021/06/28 19:19:12;;;;;;;18.35;9.02;;;;;;;;;;4937923;29;20364;-87
2021/06/28 19:21:42;;;;;;;17.77;12.38;;;;;;;;;;4955464;29;20024;-85
2021/06/28 19:24:09;;;;;;;17.60;10.40;;;;;;;;;;4940809;29;20459;-86
2021/06/28 19:26:35;;;;;;;15.05;10.32;;;;;;;;;;4941769;29;20039;-87
2021/06/28 19:29:01;;;;;;;14.18;10.30;;;;;;;;;;4959006;29;20059;-88
2021/06/28 19:31:27;;;;;;;14.05;10.20;;;;;;;;;;4958895;29;20035;-87
2021/06/28 19:33:53;;;;;;;17.30;11.82;;;;;;;;;;4942086;29;20546;-88
2021/06/28 19:36:18;;;;;;;15.85;10.38;;;;;;;;;;4941679;29;20167;-87
2021/06/28 19:38:44;;;;;;;17.30;11.50;;;;;;;;;;4959080;29;20494;-88
2021/06/28 19:41:10;;;;;;;13.38;9.15;;;;;;;;;;4958983;29;20082;-88
2021/06/28 19:43:36;;;;;;;14.32;10.63;;;;;;;;;;4942563;29;20043;-90
2021/06/28 19:46:03;;;;;;;15.00;9.85;;;;;;;;;;4926742;29;20036;-88
2021/06/28 19:48:29;;;;;;;14.38;8.68;;;;;;;;;;4959474;29;20375;-88
2021/06/28 19:50:55;;;;;;;15.65;10.48;;;;;;;;;;4941373;29;20023;-87
2021/06/28 19:53:20;;;;;;;19.02;10.23;;;;;;;;;;4941303;29;20058;-88
2021/06/28 19:55:46;;;;;;;20.45;9.57;;;;;;;;;;4958402;29;20019;-87
2021/06/28 19:58:12;;;;;;;18.80;11.30;;;;;;;;;;4959734;29;20023;-88
2021/06/28 20:00:55;;;;;;;14.65;8.55;;;;;;;;;;4960596;29;20454;-88
2021/06/28 20:03:23;;;;;;;13.25;8.52;;;;;;;;;;4960818;29;20098;-87
2021/06/28 20:05:49;;;;;;;19.05;10.90;;;;;;;;;;4959691;29;20099;-88
2021/06/28 20:09:09;;;;;;;;;;;;;;;;;;;;;